Clearwater, Canada
Current Conditions -  °F | °C
As of 10:00 PM on Saturday 25 Oct 2014 (Local Time) from CYKA Reporting Station
Overcast Overcast  
Wind Chill: 42°   Ceiling: 8000
Heat Index: 48°   Visibility: 40mi
Dew Point: 41°   Wind: 16mph
Humidity: 76%   Direction: 100°E
Pressure: 29.34"   Gusts: NA
Location:  51.65°N, 120.03°W
Report Text: CYKA 260500Z 10014KT 40SM SCT060 BKN080 OVC100 09/05 A2934 RMK SC3AC3AC2 SLP944 DENSITY ALT 1300FT
Loading
Personal Weather Stations






























Interactive Weather Map
Tropical Storm Tracking
New forecast layout! Learn more

10-Day Weather Forecast

Advertisements
Track Severe Weather on mobile